Time;durP1;ratioP1;P1;durP2;ratioP2;P2;SDS_P1;SDS_P2;PMS_P1;PMS_P2;Temp;Humidity;BMP_temperature;BMP_pressure;BME280_temperature;BME280_humidity;BME280_pressure;Samples;Min_cycle;Max_cycle;Signal;HPM_P1;HPM_P2
2022/01/30 00:00:34;;;;;;;0.00;0.00;;;8.40;72.40;;;;;;4191362;28;20620;-62
2022/01/30 00:03:10;;;;;;;0.00;0.00;;;8.60;72.40;;;;;;4194496;28;20529;-59
2022/01/30 00:05:34;;;;;;;0.00;0.00;;;8.50;72.70;;;;;;4193721;28;20037;-62
2022/01/30 00:07:57;;;;;;;0.00;0.00;;;8.60;72.60;;;;;;4193314;28;20048;-61
2022/01/30 00:10:20;;;;;;;0.00;0.00;;;8.70;72.60;;;;;;4183757;28;20049;-63
2022/01/30 00:12:56;;;;;;;0.00;0.00;;;8.80;72.80;;;;;;4177904;28;20039;-61
2022/01/30 00:15:34;;;;;;;0.00;0.00;;;8.90;73.10;;;;;;4191447;28;20059;-61
2022/01/30 00:18:11;;;;;;;0.00;0.00;;;8.90;72.90;;;;;;4191215;28;20048;-62
2022/01/30 00:20:35;;;;;;;0.00;0.00;;;8.90;72.70;;;;;;4196973;28;20040;-61
2022/01/30 00:23:24;;;;;;;0.00;0.00;;;8.90;72.40;;;;;;4197435;28;20045;-61
2022/01/30 00:25:53;;;;;;;0.00;0.00;;;8.90;72.30;;;;;;4196879;28;20444;-61
2022/01/30 00:28:17;;;;;;;0.00;0.00;;;8.90;72.20;;;;;;4195663;28;20561;-62
2022/01/30 00:30:55;;;;;;;0.00;0.00;;;9.00;72.10;;;;;;4187473;28;20063;-61
2022/01/30 00:33:18;;;;;;;0.00;0.00;;;8.90;72.20;;;;;;4197272;28;20120;-61
2022/01/30 00:35:48;;;;;;;0.00;0.00;;;9.00;72.40;;;;;;4194222;28;20057;-61
2022/01/30 00:38:15;;;;;;;0.00;0.00;;;8.90;72.90;;;;;;4194955;28;20391;-61
2022/01/30 00:40:39;;;;;;;0.00;0.00;;;8.90;73.30;;;;;;4180280;28;20037;-61
2022/01/30 00:43:09;;;;;;;0.00;0.00;;;8.80;73.50;;;;;;4195444;28;20131;-62
2022/01/30 00:45:33;;;;;;;0.00;0.00;;;8.80;73.70;;;;;;4183166;28;20045;-62
2022/01/30 00:47:56;;;;;;;0.00;0.00;;;8.90;73.40;;;;;;4196979;28;20056;-62
2022/01/30 00:50:19;;;;;;;0.00;0.00;;;8.90;73.30;;;;;;4181862;28;20072;-61
2022/01/30 00:52:41;;;;;;;0.00;0.00;;;8.80;73.30;;;;;;4180014;28;20044;-61
2022/01/30 00:55:05;;;;;;;0.00;0.00;;;8.70;73.40;;;;;;4180213;28;20045;-61
2022/01/30 00:57:27;;;;;;;0.00;0.00;;;8.70;73.50;;;;;;4180328;28;20099;-61
2022/01/30 00:59:50;;;;;;;0.00;0.00;;;8.70;73.30;;;;;;4166420;28;20075;-60
2022/01/30 01:02:12;;;;;;;0.00;0.00;;;8.80;73.20;;;;;;4165761;28;20071;-62
2022/01/30 01:04:36;;;;;;;0.00;0.00;;;8.80;73.10;;;;;;4181239;28;20116;-62
2022/01/30 01:07:00;;;;;;;0.00;0.00;;;8.70;73.30;;;;;;4180051;28;20049;-61
2022/01/30 01:09:33;;;;;;;0.00;0.00;;;8.70;73.20;;;;;;4179958;28;20056;-60
2022/01/30 01:25:23;;;;;;;0.00;0.00;;;8.70;74.20;;;;;;4179723;28;20351;-62
2022/01/30 01:27:47;;;;;;;0.00;0.00;;;8.80;74.50;;;;;;4176815;28;20428;-61
2022/01/30 01:30:24;;;;;;;0.00;0.00;;;8.70;74.90;;;;;;4163034;28;20132;-61
2022/01/30 01:33:02;;;;;;;0.00;0.00;;;8.60;75.40;;;;;;4170951;28;20172;-61
2022/01/30 01:35:29;;;;;;;0.00;0.00;;;8.60;75.70;;;;;;4180667;28;20049;-61
2022/01/30 01:37:57;;;;;;;0.00;0.00;;;8.70;75.80;;;;;;4180653;28;20068;-55
2022/01/30 01:40:23;;;;;;;0.00;0.00;;;8.80;76.00;;;;;;4162662;28;20099;-61
2022/01/30 01:42:46;;;;;;;0.00;0.00;;;8.80;76.30;;;;;;4168957;28;20681;-62
2022/01/30 01:45:09;;;;;;;0.00;0.00;;;8.80;76.50;;;;;;4172501;28;20506;-61
2022/01/30 01:47:33;;;;;;;0.00;0.00;;;8.90;76.50;;;;;;4175259;28;20091;-62
2022/01/30 01:49:59;;;;;;;0.00;0.00;;;8.90;76.60;;;;;;4179496;28;20051;-61
2022/01/30 01:52:42;;;;;;;0.00;0.00;;;8.90;76.70;;;;;;4180042;28;20136;-62
2022/01/30 01:55:16;;;;;;;0.00;0.00;;;9.00;76.70;;;;;;4179505;28;20049;-62
2022/01/30 01:57:52;;;;;;;0.00;0.00;;;8.90;76.70;;;;;;4180417;28;20037;-61
2022/01/30 02:00:37;;;;;;;0.00;0.00;;;8.90;76.90;;;;;;4178945;28;20045;-60
2022/01/30 02:03:22;;;;;;;0.00;0.00;;;8.90;77.20;;;;;;4179458;28;20410;-60
2022/01/30 02:05:58;;;;;;;0.00;0.00;;;8.90;77.40;;;;;;4180337;28;20091;-61
2022/01/30 02:08:40;;;;;;;0.00;0.00;;;8.90;77.40;;;;;;4164419;28;20053;-61
2022/01/30 02:11:27;;;;;;;0.00;0.00;;;9.00;77.40;;;;;;4179017;28;20467;-61
2022/01/30 02:14:32;;;;;;;0.00;0.00;;;8.90;77.70;;;;;;4166579;28;20053;-61
2022/01/30 02:25:41;;;;;;;0.00;0.00;;;8.60;80.00;;;;;;4166735;28;20048;-61
2022/01/30 02:28:10;;;;;;;0.00;0.00;;;8.60;80.20;;;;;;4178799;28;20063;-61
2022/01/30 02:30:36;;;;;;;0.00;0.00;;;8.60;80.20;;;;;;4161442;28;20042;-62
2022/01/30 02:33:02;;;;;;;0.00;0.00;;;8.60;79.80;;;;;;4155485;28;20037;-63
2022/01/30 02:35:25;;;;;;;0.00;0.00;;;8.60;80.00;;;;;;4164982;28;20156;-62
2022/01/30 02:37:48;;;;;;;0.00;0.00;;;8.60;80.30;;;;;;4164770;28;20053;-62
2022/01/30 02:40:12;;;;;;;0.00;0.00;;;8.60;80.90;;;;;;4147750;28;20719;-61
2022/01/30 02:42:41;;;;;;;0.00;0.00;;;8.30;82.30;;;;;;4178297;28;20529;-61
2022/01/30 02:45:08;;;;;;;0.00;0.00;;;8.30;82.70;;;;;;4164838;28;20045;-60
2022/01/30 02:52:34;;;;;;;0.00;0.00;;;8.30;83.50;;;;;;4164100;28;20046;-62
2022/01/30 02:54:57;;;;;;;0.00;0.00;;;8.30;84.50;;;;;;4164582;28;20053;-61
2022/01/30 02:57:19;;;;;;;0.00;0.00;;;8.30;84.70;;;;;;4164516;28;20049;-62
2022/01/30 02:59:42;;;;;;;0.00;0.00;;;8.40;85.00;;;;;;4152175;28;20038;-61
2022/01/30 03:02:05;;;;;;;0.00;0.00;;;8.30;85.50;;;;;;4168567;28;20045;-62
2022/01/30 03:04:28;;;;;;;0.00;0.00;;;8.30;86.30;;;;;;4166617;28;20052;-62
2022/01/30 03:06:50;;;;;;;0.00;0.00;;;8.30;86.60;;;;;;4181088;28;20049;-59
2022/01/30 03:09:29;;;;;;;0.00;0.00;;;8.30;86.40;;;;;;4180885;28;20071;-62
2022/01/30 03:11:51;;;;;;;0.00;0.00;;;8.40;86.10;;;;;;4194550;28;20492;-62
2022/01/30 03:14:14;;;;;;;0.00;0.00;;;8.30;86.60;;;;;;4194459;28;20113;-63
2022/01/30 03:16:36;;;;;;;0.00;0.00;;;8.30;86.90;;;;;;4180795;28;20044;-62
2022/01/30 03:19:01;;;;;;;0.00;0.00;;;8.40;86.70;;;;;;4180761;28;20063;-62
2022/01/30 03:21:23;;;;;;;0.00;0.00;;;8.40;86.40;;;;;;4180564;28;20135;-62
2022/01/30 03:23:58;;;;;;;0.00;0.00;;;8.50;86.40;;;;;;4176719;28;20052;-62
2022/01/30 03:26:20;;;;;;;0.00;0.00;;;8.50;86.40;;;;;;4179033;28;20049;-61
2022/01/30 03:29:06;;;;;;;0.00;0.00;;;8.50;86.40;;;;;;4194626;28;20054;-62
2022/01/30 03:31:38;;;;;;;0.00;0.00;;;8.40;86.70;;;;;;4180492;28;20049;-62
2022/01/30 03:34:00;;;;;;;0.00;0.00;;;8.30;86.80;;;;;;4180713;28;20053;-62
2022/01/30 03:36:38;;;;;;;0.00;0.00;;;8.10;87.40;;;;;;4180368;28;20187;-63
2022/01/30 03:39:02;;;;;;;0.00;0.00;;;7.80;88.30;;;;;;4180692;28;20037;-62
2022/01/30 03:41:28;;;;;;;0.00;0.00;;;7.90;88.60;;;;;;4180571;28;20041;-59
2022/01/30 03:43:51;;;;;;;0.00;0.00;;;8.00;88.20;;;;;;4181078;28;20056;-63
2022/01/30 03:46:13;;;;;;;0.00;0.00;;;8.10;88.20;;;;;;4180523;28;20517;-62
2022/01/30 03:48:38;;;;;;;0.00;0.00;;;8.10;88.10;;;;;;4194683;28;20075;-62
2022/01/30 03:51:09;;;;;;;0.00;0.00;;;8.20;87.80;;;;;;4194611;28;20090;-63
2022/01/30 03:53:32;;;;;;;0.00;0.00;;;8.30;87.40;;;;;;4184018;28;20048;-63
2022/01/30 03:55:55;;;;;;;0.00;0.00;;;8.20;87.50;;;;;;4198046;28;20053;-62
2022/01/30 03:58:22;;;;;;;0.00;0.00;;;8.10;88.00;;;;;;4182555;28;20080;-62
2022/01/30 04:00:47;;;;;;;0.00;0.00;;;8.10;88.40;;;;;;4182694;28;20048;-63
2022/01/30 04:03:11;;;;;;;0.00;0.00;;;7.90;88.60;;;;;;4197822;28;20048;-62
2022/01/30 04:05:33;;;;;;;0.00;0.00;;;8.00;88.80;;;;;;4197770;28;20102;-62
2022/01/30 04:08:04;;;;;;;0.00;0.00;;;8.00;88.70;;;;;;4183621;28;20538;-59
2022/01/30 04:10:45;;;;;;;0.00;0.00;;;8.10;88.30;;;;;;4185115;28;20086;-62
2022/01/30 04:13:18;;;;;;;0.00;0.00;;;8.10;88.10;;;;;;4183721;28;20045;-62
2022/01/30 04:15:59;;;;;;;0.00;0.00;;;8.00;88.50;;;;;;4197714;28;20095;-62
2022/01/30 04:18:36;;;;;;;0.00;0.00;;;7.90;89.00;;;;;;4183014;28;20611;-62
2022/01/30 04:21:18;;;;;;;0.00;0.00;;;7.80;89.60;;;;;;4183271;28;20563;-62
2022/01/30 04:24:01;;;;;;;0.00;0.00;;;7.70;90.00;;;;;;4182308;28;20446;-62
2022/01/30 04:26:50;;;;;;;0.00;0.00;;;7.50;90.30;;;;;;4176718;28;20076;-59
2022/01/30 04:29:31;;;;;;;0.00;0.00;;;7.20;90.80;;;;;;4191627;28;20044;-61
2022/01/30 04:32:20;;;;;;;0.00;0.00;;;7.10;91.10;;;;;;4132547;28;20105;-60
2022/01/30 04:35:17;;;;;;;0.00;0.00;;;7.10;91.20;;;;;;4133318;28;20042;-61
2022/01/30 04:38:37;;;;;;;0.00;0.00;;;6.90;91.60;;;;;;4133013;28;20070;-57
2022/01/30 04:59:08;;;;;;;0.00;0.00;;;6.50;93.10;;;;;;4132436;28;20045;-61
2022/01/30 05:05:25;;;;;;;0.00;0.00;;;6.50;93.30;;;;;;4113563;28;20483;-60
2022/01/30 05:08:07;;;;;;;0.00;0.00;;;6.50;93.50;;;;;;4132607;28;20062;-60
2022/01/30 05:11:07;;;;;;;0.00;0.00;;;6.70;93.30;;;;;;4123441;28;20057;-60
2022/01/30 05:13:50;;;;;;;0.00;0.00;;;6.80;93.00;;;;;;4196493;28;20051;-60
2022/01/30 05:16:35;;;;;;;0.00;0.00;;;6.90;92.80;;;;;;4173950;28;20044;-60
2022/01/30 05:19:16;;;;;;;0.00;0.00;;;7.10;92.60;;;;;;4182813;28;20469;-60
2022/01/30 05:21:54;;;;;;;0.00;0.00;;;7.20;92.30;;;;;;4196465;28;20482;-59
2022/01/30 05:24:30;;;;;;;0.00;0.00;;;7.40;92.20;;;;;;4182452;28;20045;-61
2022/01/30 05:27:01;;;;;;;0.00;0.00;;;7.40;92.10;;;;;;4196533;28;20041;-61
2022/01/30 05:29:39;;;;;;;0.00;0.00;;;7.40;91.90;;;;;;4182355;28;20053;-61
2022/01/30 05:32:05;;;;;;;0.00;0.00;;;7.30;92.40;;;;;;4196112;28;20572;-61
2022/01/30 05:35:00;;;;;;;0.00;0.00;;;7.30;92.40;;;;;;4179153;28;20155;-61
2022/01/30 05:37:32;;;;;;;0.00;0.00;;;7.20;92.60;;;;;;4182390;28;20136;-58
2022/01/30 05:40:13;;;;;;;0.00;0.00;;;7.30;92.70;;;;;;4179343;28;20119;-56
2022/01/30 05:42:56;;;;;;;0.00;0.00;;;7.30;92.70;;;;;;4170682;28;20032;-53
2022/01/30 05:45:41;;;;;;;0.00;0.00;;;7.20;92.80;;;;;;4196108;28;20135;-50
2022/01/30 05:48:40;;;;;;;0.00;0.00;;;7.20;92.90;;;;;;4195560;28;20053;-52
2022/01/30 05:51:26;;;;;;;0.00;0.00;;;7.00;93.30;;;;;;4195789;28;20374;-61
2022/01/30 05:53:55;;;;;;;0.00;0.00;;;7.00;93.40;;;;;;4195892;28;20045;-61
2022/01/30 05:56:25;;;;;;;0.00;0.00;;;6.90;93.60;;;;;;4180908;28;20074;-62
2022/01/30 05:58:54;;;;;;;0.00;0.00;;;7.00;93.70;;;;;;4181843;28;20063;-61
2022/01/30 06:01:17;;;;;;;0.00;0.00;;;7.00;93.80;;;;;;4195575;28;20140;-61
2022/01/30 06:03:39;;;;;;;0.00;0.00;;;7.00;94.20;;;;;;4181898;28;20057;-60
2022/01/30 06:06:02;;;;;;;0.00;0.00;;;6.90;94.20;;;;;;4181813;28;20046;-59
2022/01/30 06:09:18;;;;;;;0.00;0.00;;;6.80;94.40;;;;;;4181336;28;20045;-62
2022/01/30 06:11:11;;;;;;;0.00;0.00;;;6.80;94.70;;;;;;4181522;28;20065;-61
2022/01/30 06:13:34;;;;;;;0.00;0.00;;;6.70;95.10;;;;;;4181833;28;20073;-63
2022/01/30 06:15:57;;;;;;;0.00;0.00;;;6.70;95.30;;;;;;4181692;28;20040;-61
2022/01/30 06:18:20;;;;;;;0.00;0.00;;;6.60;95.30;;;;;;4181024;28;20053;-61
2022/01/30 06:21:01;;;;;;;0.00;0.00;;;6.60;95.40;;;;;;4195342;28;20083;-62
2022/01/30 06:23:42;;;;;;;0.00;0.00;;;6.40;95.70;;;;;;4195498;28;20459;-62
2022/01/30 06:26:23;;;;;;;0.00;0.00;;;6.40;95.80;;;;;;4178522;28;20106;-59
2022/01/30 06:28:48;;;;;;;0.00;0.00;;;6.30;96.00;;;;;;4183971;28;20506;-52
2022/01/30 06:31:29;;;;;;;0.00;0.00;;;6.10;96.40;;;;;;4187964;28;20041;-55
2022/01/30 06:34:10;;;;;;;0.00;0.00;;;6.10;96.60;;;;;;4176131;28;20072;-52
2022/01/30 06:36:51;;;;;;;0.00;0.00;;;6.10;96.80;;;;;;4167329;28;20056;-57
2022/01/30 06:39:37;;;;;;;0.00;0.00;;;6.30;96.70;;;;;;4178551;28;20068;-53
2022/01/30 06:42:13;;;;;;;0.00;0.00;;;6.30;96.70;;;;;;4164066;28;20131;-62
2022/01/30 06:44:58;;;;;;;0.00;0.00;;;6.20;96.70;;;;;;4168807;28;20052;-62
2022/01/30 06:47:41;;;;;;;0.00;0.00;;;6.40;96.60;;;;;;4178703;28;20053;-63
2022/01/30 06:50:23;;;;;;;0.00;0.00;;;6.60;96.40;;;;;;4178136;28;20585;-62
2022/01/30 06:53:04;;;;;;;0.00;0.00;;;6.70;96.10;;;;;;4178433;28;20123;-57
2022/01/30 06:56:06;;;;;;;0.00;0.00;;;6.90;95.80;;;;;;4178484;28;20056;-57
2022/01/30 06:59:00;;;;;;;0.00;0.00;;;7.00;95.50;;;;;;4178187;28;20048;-57
2022/01/30 07:01:41;;;;;;;0.00;0.00;;;7.10;95.30;;;;;;4178224;28;20136;-57
2022/01/30 07:04:41;;;;;;;0.00;0.00;;;7.20;95.10;;;;;;4165984;28;20483;-56
2022/01/30 07:07:18;;;;;;;0.00;0.00;;;7.40;94.70;;;;;;4178690;28;20079;-57
2022/01/30 07:09:40;;;;;;;0.00;0.00;;;7.20;94.60;;;;;;4178355;28;20049;-57
2022/01/30 07:12:03;;;;;;;0.00;0.00;;;7.40;94.60;;;;;;4178132;28;20049;-57
2022/01/30 07:14:25;;;;;;;0.00;0.00;;;7.50;94.30;;;;;;4177900;28;20053;-57
2022/01/30 07:16:48;;;;;;;0.00;0.00;;;7.60;94.10;;;;;;4181233;28;20140;-56
2022/01/30 07:19:10;;;;;;;0.00;0.00;;;7.60;93.90;;;;;;4181440;28;20048;-57
2022/01/30 07:21:32;;;;;;;0.00;0.00;;;7.70;93.90;;;;;;4192773;28;20518;-58
2022/01/30 07:23:55;;;;;;;0.00;0.00;;;7.80;93.60;;;;;;4194652;28;20044;-57
2022/01/30 07:26:17;;;;;;;0.00;0.00;;;7.80;93.30;;;;;;4175641;28;20098;-57
2022/01/30 07:28:40;;;;;;;0.00;0.00;;;7.90;93.20;;;;;;4177931;28;20040;-57
2022/01/30 07:31:04;;;;;;;0.00;0.00;;;8.00;93.00;;;;;;4177980;28;20049;-59
2022/01/30 07:33:27;;;;;;;0.00;0.00;;;8.10;92.80;;;;;;4185555;28;20533;-58
2022/01/30 07:35:53;;;;;;;0.00;0.00;;;8.20;92.60;;;;;;4180853;28;20407;-58
2022/01/30 07:38:16;;;;;;;0.00;0.00;;;8.20;92.30;;;;;;4194228;28;20102;-57
2022/01/30 07:40:39;;;;;;;0.00;0.00;;;8.10;92.10;;;;;;4194423;28;20068;-57
2022/01/30 07:43:01;;;;;;;0.00;0.00;;;8.10;92.00;;;;;;4180619;28;20048;-59
2022/01/30 07:45:27;;;;;;;0.00;0.00;;;8.00;91.90;;;;;;4180670;28;20561;-57
2022/01/30 07:47:49;;;;;;;0.00;0.00;;;8.00;91.70;;;;;;4187665;28;20139;-59
2022/01/30 07:50:12;;;;;;;0.00;0.00;;;7.90;91.50;;;;;;4160856;28;20057;-58
2022/01/30 07:52:34;;;;;;;0.00;0.00;;;7.90;91.50;;;;;;4164318;28;20045;-58
2022/01/30 07:54:56;;;;;;;0.00;0.00;;;8.00;91.50;;;;;;4178088;28;20060;-58
2022/01/30 07:57:22;;;;;;;0.00;0.00;;;8.10;91.40;;;;;;4168216;28;20422;-58
2022/01/30 07:59:44;;;;;;;0.00;0.00;;;8.10;91.30;;;;;;4174207;28;20128;-59
2022/01/30 08:02:08;;;;;;;0.00;0.00;;;8.20;91.10;;;;;;4161649;28;20420;-58
2022/01/30 08:04:30;;;;;;;0.00;0.00;;;8.30;91.00;;;;;;4177309;28;20208;-58
2022/01/30 08:06:53;;;;;;;0.00;0.00;;;8.40;90.80;;;;;;4177910;28;20531;-58
2022/01/30 08:09:19;;;;;;;0.00;0.00;;;8.40;90.70;;;;;;4168341;28;20088;-58
2022/01/30 08:11:42;;;;;;;0.00;0.00;;;8.50;90.50;;;;;;4173455;28;20132;-59
2022/01/30 08:14:04;;;;;;;0.00;0.00;;;8.50;90.30;;;;;;4164144;28;20052;-60
2022/01/30 08:16:27;;;;;;;0.00;0.00;;;8.60;90.30;;;;;;4177404;28;20043;-60
2022/01/30 08:18:50;;;;;;;0.00;0.00;;;8.60;90.10;;;;;;4177490;28;20548;-60
2022/01/30 08:21:12;;;;;;;0.00;0.00;;;8.70;89.60;;;;;;4177456;28;20045;-59
2022/01/30 08:23:35;;;;;;;0.00;0.00;;;8.70;89.10;;;;;;4152398;28;20049;-60
2022/01/30 08:25:57;;;;;;;0.00;0.00;;;8.50;90.00;;;;;;4189725;28;20139;-59
2022/01/30 08:28:19;;;;;;;0.00;0.00;;;8.10;91.10;;;;;;4177235;28;20060;-59
2022/01/30 08:30:42;;;;;;;0.00;0.00;;;8.00;91.60;;;;;;4178065;28;20044;-60
2022/01/30 08:33:05;;;;;;;0.00;0.00;;;8.10;91.70;;;;;;4194194;28;20052;-60
2022/01/30 08:35:27;;;;;;;0.00;0.00;;;8.20;91.70;;;;;;4194300;28;20139;-60
2022/01/30 08:37:50;;;;;;;0.00;0.00;;;8.10;91.90;;;;;;4194398;28;20391;-60
2022/01/30 08:40:18;;;;;;;0.00;0.00;;;8.00;92.10;;;;;;4180533;28;20056;-61
2022/01/30 08:42:41;;;;;;;0.00;0.00;;;7.60;92.80;;;;;;4197373;28;20445;-59
2022/01/30 08:45:05;;;;;;;0.00;0.00;;;7.50;93.20;;;;;;4183331;28;20123;-60
2022/01/30 08:47:33;;;;;;;0.00;0.00;;;7.50;93.50;;;;;;4184090;28;20048;-60
2022/01/30 08:49:55;;;;;;;0.00;0.00;;;7.60;93.50;;;;;;4196964;28;20123;-60
2022/01/30 08:52:19;;;;;;;0.00;0.00;;;7.50;93.50;;;;;;4166977;28;20054;-61
2022/01/30 08:54:42;;;;;;;0.00;0.00;;;7.40;93.50;;;;;;4197074;28;20063;-60
2022/01/30 08:57:04;;;;;;;0.00;0.00;;;7.40;93.60;;;;;;4197054;28;20048;-60
2022/01/30 08:59:27;;;;;;;0.00;0.00;;;7.40;93.70;;;;;;4197001;28;20553;-60
2022/01/30 09:01:50;;;;;;;0.00;0.00;;;7.30;93.80;;;;;;4171216;28;20052;-60
2022/01/30 09:04:14;;;;;;;0.00;0.00;;;7.20;94.30;;;;;;4196487;28;20052;-61
2022/01/30 09:06:38;;;;;;;0.00;0.00;;;7.20;94.50;;;;;;4196846;28;20109;-60
2022/01/30 09:09:03;;;;;;;0.00;0.00;;;7.10;94.50;;;;;;4183127;28;20041;-60
2022/01/30 09:11:25;;;;;;;0.00;0.00;;;7.20;94.60;;;;;;4196608;28;20041;-60
2022/01/30 09:13:47;;;;;;;0.00;0.00;;;7.10;94.60;;;;;;4196722;28;20202;-60
2022/01/30 09:16:10;;;;;;;0.00;0.00;;;7.10;94.70;;;;;;4196692;28;20127;-60
2022/01/30 09:18:32;;;;;;;0.00;0.00;;;7.30;94.60;;;;;;4196024;28;20056;-60
2022/01/30 09:20:55;;;;;;;0.00;0.00;;;7.30;94.40;;;;;;4195108;28;20055;-60
2022/01/30 09:23:17;;;;;;;0.00;0.00;;;7.50;94.20;;;;;;4195931;28;20514;-60
2022/01/30 09:25:40;;;;;;;0.00;0.00;;;7.60;94.00;;;;;;4195596;28;20080;-60
2022/01/30 09:28:02;;;;;;;0.00;0.00;;;7.70;93.80;;;;;;4182731;28;20040;-59
2022/01/30 09:30:24;;;;;;;0.00;0.00;;;7.80;93.80;;;;;;4196030;28;20091;-60
2022/01/30 09:32:47;;;;;;;0.00;0.00;;;7.90;93.60;;;;;;4196844;28;20055;-60
2022/01/30 09:35:10;;;;;;;0.00;0.00;;;7.90;93.50;;;;;;4196549;28;20509;-61
2022/01/30 09:37:33;;;;;;;0.00;0.00;;;7.90;93.50;;;;;;4181152;28;20123;-61
2022/01/30 09:39:55;;;;;;;0.00;0.00;;;7.70;93.50;;;;;;4191778;28;20032;-61
2022/01/30 09:42:18;;;;;;;0.00;0.00;;;7.80;93.50;;;;;;4189121;28;20048;-61
2022/01/30 09:44:41;;;;;;;0.00;0.00;;;7.90;93.50;;;;;;4148638;28;20077;-61
2022/01/30 09:47:03;;;;;;;0.00;0.00;;;7.80;93.40;;;;;;4165518;28;20045;-60
2022/01/30 09:49:29;;;;;;;0.00;0.00;;;7.80;93.40;;;;;;4189245;28;20076;-60
2022/01/30 09:51:53;;;;;;;0.00;0.00;;;7.80;93.40;;;;;;4183344;28;20143;-59
2022/01/30 09:54:15;;;;;;;0.00;0.00;;;7.70;93.40;;;;;;4178515;28;20052;-59
2022/01/30 09:56:38;;;;;;;0.00;0.00;;;7.90;93.40;;;;;;4161981;28;20048;-60
2022/01/30 09:59:01;;;;;;;0.00;0.00;;;8.00;93.20;;;;;;4161755;28;20037;-60
2022/01/30 10:01:33;;;;;;;0.00;0.00;;;8.20;93.00;;;;;;4148535;28;20052;-60
2022/01/30 10:03:56;;;;;;;0.00;0.00;;;8.30;92.80;;;;;;4163203;28;20073;-60
2022/01/30 10:06:22;;;;;;;0.00;0.00;;;8.40;92.60;;;;;;4178131;28;20052;-59
2022/01/30 10:08:47;;;;;;;0.00;0.00;;;8.60;92.10;;;;;;4163338;28;20057;-60
2022/01/30 10:11:31;;;;;;;0.00;0.00;;;8.90;92.00;;;;;;4162556;28;20100;-60
2022/01/30 10:14:03;;;;;;;0.00;0.00;;;9.10;91.80;;;;;;4162839;28;20069;-60
2022/01/30 10:16:25;;;;;;;0.00;0.00;;;9.60;91.60;;;;;;4176891;28;20072;-59
2022/01/30 10:18:48;;;;;;;0.00;0.00;;;10.10;91.00;;;;;;4173103;28;20049;-60
2022/01/30 10:21:21;;;;;;;0.00;0.00;;;10.50;90.30;;;;;;4172778;28;20525;-59
2022/01/30 10:23:43;;;;;;;0.00;0.00;;;10.70;88.90;;;;;;4195696;28;20502;-60
2022/01/30 10:26:09;;;;;;;0.00;0.00;;;10.80;87.10;;;;;;4187563;28;20045;-59
2022/01/30 10:28:32;;;;;;;0.00;0.00;;;10.90;87.10;;;;;;4174453;28;20087;-60
2022/01/30 10:31:13;;;;;;;0.00;0.00;;;11.00;86.90;;;;;;4163646;28;22727;-60
2022/01/30 10:33:45;;;;;;;0.00;0.00;;;11.00;86.10;;;;;;4189482;28;20060;-59
2022/01/30 10:36:09;;;;;;;0.00;0.00;;;10.90;84.90;;;;;;4195333;28;20048;-59
2022/01/30 10:38:38;;;;;;;0.00;0.00;;;10.90;84.30;;;;;;4181166;28;20052;-60
2022/01/30 10:41:11;;;;;;;0.00;0.00;;;10.90;84.40;;;;;;4194768;28;20041;-60
2022/01/30 10:43:55;;;;;;;0.00;0.00;;;11.00;84.40;;;;;;4195444;28;20071;-60
2022/01/30 10:46:18;;;;;;;0.00;0.00;;;11.20;82.80;;;;;;4194762;28;20048;-59
2022/01/30 10:48:59;;;;;;;0.00;0.00;;;11.30;83.20;;;;;;4195333;28;20040;-61
2022/01/30 10:51:23;;;;;;;0.00;0.00;;;11.50;83.00;;;;;;4194886;28;20082;-61
2022/01/30 10:53:49;;;;;;;0.00;0.00;;;11.70;82.70;;;;;;4195152;28;20044;-61
2022/01/30 10:56:24;;;;;;;0.00;0.00;;;11.80;81.80;;;;;;4194835;28;20052;-62
2022/01/30 10:59:26;;;;;;;0.00;0.00;;;12.00;80.20;;;;;;4195346;28;20044;-61
2022/01/30 11:01:51;;;;;;;0.00;0.00;;;12.10;80.10;;;;;;4194213;28;20048;-60
2022/01/30 11:04:25;;;;;;;0.00;0.00;;;12.10;79.70;;;;;;4194747;28;20469;-61
2022/01/30 11:06:49;;;;;;;0.00;0.00;;;12.10;79.50;;;;;;4181246;28;20045;-61
2022/01/30 11:09:15;;;;;;;0.00;0.00;;;12.00;79.60;;;;;;4195050;28;20056;-61
2022/01/30 11:11:45;;;;;;;0.00;0.00;;;11.90;79.10;;;;;;4194564;28;20070;-61
2022/01/30 11:19:18;;;;;;;0.00;0.00;;;11.50;79.30;;;;;;4194863;28;20052;-62
2022/01/30 11:21:42;;;;;;;0.00;0.00;;;11.40;79.40;;;;;;4194637;28;20048;-61
2022/01/30 11:24:09;;;;;;;0.00;0.00;;;11.40;79.00;;;;;;4195023;28;20147;-61
2022/01/30 11:26:33;;;;;;;0.00;0.00;;;11.20;78.80;;;;;;4194514;28;20040;-61
2022/01/30 11:28:56;;;;;;;0.00;0.00;;;11.10;79.00;;;;;;4195022;28;20049;-61
2022/01/30 11:31:19;;;;;;;0.00;0.00;;;11.10;79.10;;;;;;4194581;28;20052;-61
2022/01/30 11:33:44;;;;;;;0.00;0.00;;;11.10;79.30;;;;;;4194826;28;20496;-60
2022/01/30 11:36:07;;;;;;;0.00;0.00;;;11.00;79.20;;;;;;4194835;28;20052;-60
2022/01/30 11:38:30;;;;;;;0.00;0.00;;;11.10;79.50;;;;;;4194393;28;20045;-60
2022/01/30 11:41:16;;;;;;;0.00;0.00;;;11.10;79.30;;;;;;4194420;28;20074;-60
2022/01/30 11:43:40;;;;;;;0.00;0.00;;;11.20;79.10;;;;;;4194808;28;20394;-60
2022/01/30 11:46:16;;;;;;;0.00;0.00;;;11.10;78.20;;;;;;4180923;28;20052;-61
2022/01/30 11:48:39;;;;;;;0.00;0.00;;;11.10;78.80;;;;;;4194410;28;20040;-60
2022/01/30 11:51:02;;;;;;;0.00;0.00;;;11.10;78.70;;;;;;4180675;28;20044;-61
2022/01/30 11:53:29;;;;;;;0.00;0.00;;;11.00;78.40;;;;;;4194822;28;20450;-62
2022/01/30 11:56:00;;;;;;;0.00;0.00;;;10.90;77.90;;;;;;4181059;28;20052;-60
2022/01/30 11:58:41;;;;;;;0.00;0.00;;;10.70;78.80;;;;;;4194312;28;20060;-62
2022/01/30 12:01:11;;;;;;;0.00;0.00;;;10.80;78.40;;;;;;4194555;28;20049;-61
2022/01/30 12:03:36;;;;;;;0.00;0.00;;;10.90;78.50;;;;;;4194690;28;20102;-61
2022/01/30 12:06:21;;;;;;;0.00;0.00;;;11.00;78.20;;;;;;4194656;28;20083;-61
2022/01/30 12:08:45;;;;;;;0.00;0.00;;;11.00;77.60;;;;;;4194156;28;20436;-60
2022/01/30 12:13:58;;;;;;;0.00;0.00;;;10.90;77.90;;;;;;4197655;28;20110;-59
2022/01/30 12:16:43;;;;;;;0.00;0.00;;;10.90;78.00;;;;;;4197392;28;20049;-60
2022/01/30 12:19:05;;;;;;;0.00;0.00;;;11.10;78.00;;;;;;4197479;28;20048;-62
2022/01/30 12:21:28;;;;;;;0.00;0.00;;;11.10;77.70;;;;;;4197400;28;20080;-60
2022/01/30 12:23:50;;;;;;;0.00;0.00;;;11.20;77.20;;;;;;4197612;28;20056;-61
2022/01/30 12:26:15;;;;;;;0.00;0.00;;;11.20;76.80;;;;;;4197270;28;20044;-58
2022/01/30 12:28:49;;;;;;;0.00;0.00;;;10.90;76.50;;;;;;4197391;28;20041;-59
2022/01/30 12:31:34;;;;;;;0.00;0.00;;;10.90;77.20;;;;;;4197141;28;20049;-60
2022/01/30 12:34:04;;;;;;;0.00;0.00;;;10.80;77.30;;;;;;4197334;28;20118;-60
2022/01/30 12:36:27;;;;;;;0.00;0.00;;;10.70;77.90;;;;;;4197025;28;20041;-59
2022/01/30 12:38:55;;;;;;;0.00;0.00;;;10.70;77.50;;;;;;4197536;28;20049;-60
2022/01/30 12:41:20;;;;;;;0.00;0.00;;;10.60;77.80;;;;;;4196998;28;20044;-59
2022/01/30 12:43:42;;;;;;;0.00;0.00;;;10.50;77.40;;;;;;4197056;28;20040;-59
2022/01/30 12:46:10;;;;;;;0.00;0.00;;;10.60;77.40;;;;;;4197160;28;20076;-60
2022/01/30 12:48:32;;;;;;;0.00;0.00;;;10.70;77.00;;;;;;4183201;28;20078;-60
2022/01/30 12:50:58;;;;;;;0.00;0.00;;;10.80;76.50;;;;;;4197016;28;20052;-59
2022/01/30 12:53:21;;;;;;;0.00;0.00;;;10.80;76.30;;;;;;4197164;28;20423;-59
2022/01/30 12:55:44;;;;;;;0.00;0.00;;;10.90;75.50;;;;;;4197077;28;20048;-60
2022/01/30 12:58:06;;;;;;;0.00;0.00;;;10.80;75.30;;;;;;4197033;28;20071;-59
2022/01/30 13:00:29;;;;;;;0.00;0.00;;;10.80;75.60;;;;;;4182632;28;20079;-59
2022/01/30 13:02:57;;;;;;;0.00;0.00;;;10.90;75.60;;;;;;4197000;28;20533;-59
2022/01/30 13:05:20;;;;;;;0.00;0.00;;;11.00;75.20;;;;;;4196974;28;20052;-59
2022/01/30 13:07:55;;;;;;;0.00;0.00;;;11.00;74.80;;;;;;4196680;28;20706;-59
2022/01/30 13:10:17;;;;;;;0.00;0.00;;;11.00;75.00;;;;;;4180632;28;20562;-59
2022/01/30 13:12:44;;;;;;;0.00;0.00;;;11.00;74.50;;;;;;4196874;28;20044;-59
2022/01/30 13:15:13;;;;;;;0.00;0.00;;;11.10;74.40;;;;;;4196713;28;20058;-60
2022/01/30 13:17:35;;;;;;;0.00;0.00;;;11.00;74.50;;;;;;4196497;28;20498;-59
2022/01/30 13:19:58;;;;;;;0.00;0.00;;;11.00;74.50;;;;;;4196803;28;20044;-59
2022/01/30 13:22:29;;;;;;;0.00;0.00;;;11.00;74.80;;;;;;4196157;28;20572;-59
2022/01/30 13:24:57;;;;;;;0.00;0.00;;;10.90;75.50;;;;;;4182706;28;20041;-60
2022/01/30 13:27:20;;;;;;;0.00;0.00;;;10.90;76.50;;;;;;4172992;28;20095;-59
2022/01/30 13:29:42;;;;;;;0.00;0.00;;;10.90;76.80;;;;;;4192433;28;20056;-59
2022/01/30 13:32:10;;;;;;;0.00;0.00;;;11.00;76.50;;;;;;4196291;28;20646;-59
2022/01/30 13:34:34;;;;;;;0.00;0.00;;;11.00;76.00;;;;;;4195945;28;20049;-59
2022/01/30 13:37:05;;;;;;;0.00;0.00;;;11.00;76.20;;;;;;4194667;28;20175;-59
2022/01/30 13:39:36;;;;;;;;;;;11.00;75.70;;;;;;4167074;28;20096;-59
2022/01/30 13:45:16;;;;;;;0.00;0.00;;;10.90;76.40;;;;;;4179253;28;20040;-59
2022/01/30 13:47:36;;;;;;;0.00;0.00;;;10.80;77.00;;;;;;4193685;28;20845;-59
2022/01/30 13:50:00;;;;;;;0.00;0.00;;;10.70;78.00;;;;;;4165791;28;20181;-59
2022/01/30 13:52:31;;;;;;;0.00;0.00;;;10.60;78.30;;;;;;4164103;28;20057;-59
2022/01/30 13:55:07;;;;;;;0.00;0.00;;;10.50;78.90;;;;;;4179314;28;20110;-58
2022/01/30 13:57:36;;;;;;;0.00;0.00;;;10.50;79.10;;;;;;4179553;28;20081;-59
2022/01/30 14:00:17;;;;;;;0.00;0.00;;;10.50;78.80;;;;;;4152287;28;20081;-59
2022/01/30 14:02:58;;;;;;;0.00;0.00;;;10.60;78.50;;;;;;4179132;28;20588;-59
2022/01/30 14:05:28;;;;;;;0.00;0.00;;;10.60;78.20;;;;;;4179435;28;20056;-59